Air Resources Laboratory banner image
Air Resources Laboratory web site National Oceanic and Atmospheric Administration (NOAA)

al metar


K79J 200556Z AUTO 12003KT 8SM CLR 18/16 A3024 RMK AO2 SLP235 T01780156 10250
 20167 58004=
KANB 200553Z AUTO 14006KT 10SM OVC070 21/14 A3027 RMK AO2 SLP244 T02110144
 10222 20211 402560144 53007=
KAUO 200556Z AUTO 00000KT 10SM CLR 18/14 A3030 RMK AO2 SLP275 T01830139 10228
 20183 402500167 50003=
KBFM 200553Z AUTO 13009KT 10SM SCT020 19/19 A3022 RMK AO2 SLP231 T01940189
 10217 20189 402500172 55001=
KBHM 200553Z 16007KT 10SM OVC070 21/14 A3027 RMK AO2 SLP243 T02060144 10228
 20200 402560133 53008=
KDCU 200553Z AUTO 14008KT CLR 18/14 A3022 RMK AO2 SLP228 T01780139 10206 20178
 402440128 53008 $=
KDHN 200553Z AUTO 12004KT 10SM CLR 17/16 A3029 RMK AO2 SLP254 T01720156 10233
 20161 56003=
KEET 200553Z AUTO 16004KT 10SM FEW049 19/16 A3025 RMK AO2 SLP238 T01940156
 10222 20194 402560122 51009 $=
KGAD 200556Z AUTO 04005KT 10SM BKN047 OVC065 17/16 A3027 RMK AO2 SLP249
 T01720156 10222 20172 402560100 53007=
KGZH 200553Z AUTO 12004KT 10SM CLR 18/15 A3023 RMK AO2 SLP234 T01780150 10239
 20178 402830144 58001=
KHSV 200553Z 15009KT 10SM SCT250 19/15 A3022 RMK AO2 SLP227 T01890150 10222
 20178 402500133 53008 $=
KLOR 200558Z AUTO 00000KT 10SM CLR 14/14 A3026 RMK AO2 SLP229 T01430138 10239
 20143 402780122 55001=
KMGM 200553Z AUTO 11004KT 10SM CLR 17/16 A3025 RMK AO2 SLP240 T01720156 10239
 20172 402780133 51003 $=
KMOB 200556Z AUTO 15013KT 10SM BKN012 OVC016 21/19 A3021 RMK AO2 SLP228
 T02110189 10217 20206 402670178 53002 $=
KMSL 200553Z AUTO 19009KT 10SM CLR 20/14 A3020 RMK AO2 SLP222 T02000139 10217
 20183 402440128 53011=
KMXF 200556Z AUTO 00000KT 10SM CLR 18/15 A3023 RMK AO2 SLP239 T01760154 10223
 20176 402760131 51003 $=
KOZR 200556Z AUTO 00000KT 10SM CLR 17/15 M RMK AO2 SLPNO T01700148 10242 20168
 402780149 $=
KTCL 200553Z AUTO 17006KT 10SM FEW075 21/17 A3022 RMK AO2 SLP230 T02060167
 10244 20206 402610106 52010=
KTOI 200553Z AUTO 12004KT 10SM CLR 16/14 A3026 RMK AO2 SLP242 T01560144 10233
 20156 402720122 58003=